Time;durP1;ratioP1;P1;durP2;ratioP2;P2;SDS_P1;SDS_P2;PMS_P1;PMS_P2;Temp;Humidity;BMP_temperature;BMP_pressure;BME280_temperature;BME280_humidity;BME280_pressure;Samples;Min_cycle;Max_cycle;Signal;HPM_P1;HPM_P2
2022/12/11 00:01:20;;;;;;;40.05;12.32;;;;;;;-1.40;100.00;97861.72;4134739;34;20449;-76
2022/12/11 00:03:47;;;;;;;21.30;9.32;;;;;;;-0.92;100.00;97896.69;4136469;34;20159;-76
2022/12/11 00:06:16;;;;;;;31.77;11.80;;;;;;;-1.06;100.00;97883.69;4150331;34;20097;-76
2022/12/11 00:08:43;;;;;;;34.53;12.82;;;;;;;-1.30;100.00;97851.56;4177989;34;20115;-75
2022/12/11 00:11:12;;;;;;;20.90;7.97;;;;;;;-1.14;100.00;97877.56;4179361;34;20051;-76
2022/12/11 00:13:39;;;;;;;23.17;10.35;;;;;;;-1.08;100.00;97880.44;4188068;34;20061;-74
2022/12/11 00:16:05;;;;;;;24.37;9.95;;;;;;;-1.37;100.00;97850.72;4189519;34;20490;-76
2022/12/11 00:18:32;;;;;;;15.63;5.82;;;;;;;-1.43;100.00;97843.63;4194008;34;20378;-76
2022/12/11 00:21:02;;;;;;;9.60;4.78;;;;;;;-1.40;100.00;97865.16;4165158;34;20429;-75
2022/12/11 00:23:29;;;;;;;19.33;9.45;;;;;;;-1.30;100.00;97877.97;4164990;34;20048;-75
2022/12/11 00:25:56;;;;;;;11.73;6.50;;;;;;;-1.72;100.00;97808.69;4168971;34;20035;-75
2022/12/11 00:28:22;;;;;;;47.65;14.82;;;;;;;-1.43;100.00;97868.22;4192838;34;20094;-76
2022/12/11 00:30:48;;;;;;;19.95;8.32;;;;;;;-1.20;100.00;97875.72;4190875;34;20062;-75
2022/12/11 00:33:16;;;;;;;27.62;11.38;;;;;;;-1.30;100.00;97862.13;4190106;34;20073;-75
2022/12/11 00:35:46;;;;;;;16.00;6.15;;;;;;;-1.26;100.00;97884.50;4191626;34;20071;-75
2022/12/11 00:38:16;;;;;;;34.65;13.82;;;;;;;-1.26;100.00;97881.00;4225633;33;20099;-75
2022/12/11 00:40:43;;;;;;;18.23;7.65;;;;;;;-1.02;100.00;97892.81;4236558;33;20042;-76
2022/12/11 00:43:10;;;;;;;14.27;6.70;;;;;;;-1.18;100.00;97902.78;4229589;33;20062;-75
2022/12/11 00:45:42;;;;;;;18.08;7.85;;;;;;;-1.39;100.00;97884.44;4229884;33;20047;-76
2022/12/11 00:48:10;;;;;;;29.48;11.15;;;;;;;-1.04;100.00;97902.78;4227883;33;20059;-75
2022/12/11 00:50:37;;;;;;;31.20;11.32;;;;;;;-1.04;100.00;97884.28;4220848;34;20055;-75
2022/12/11 00:53:04;;;;;;;22.25;10.30;;;;;;;-0.93;100.00;97895.03;4229481;33;20066;-75
2022/12/11 00:55:36;;;;;;;24.23;11.40;;;;;;;-1.12;100.00;97886.12;4231001;33;20482;-75
2022/12/11 00:58:03;;;;;;;26.27;9.85;;;;;;;-1.03;100.00;97892.00;4242310;33;20197;-75
2022/12/11 03:01:59;;;;;;;24.30;10.50;;;;;;;-1.61;100.00;97786.12;4451106;28;20145;-74
2022/12/11 03:04:28;;;;;;;8.77;4.47;;;;;;;-1.80;100.00;97793.84;4285464;33;20057;-74
2022/12/11 03:07:00;;;;;;;18.23;7.68;;;;;;;-1.86;100.00;97789.34;4288532;33;20060;-74
2022/12/11 03:09:27;;;;;;;11.10;6.00;;;;;;;-1.81;100.00;97780.84;4291582;33;20041;-75
2022/12/11 03:11:53;;;;;;;19.08;8.02;;;;;;;-2.08;100.00;97784.22;4288014;33;20038;-75
2022/12/11 03:14:20;;;;;;;15.95;6.47;;;;;;;-2.09;100.00;97795.81;4280674;33;20164;-74
2022/12/11 03:17:02;;;;;;;13.52;6.95;;;;;;;-2.01;100.00;97798.25;4282803;33;20041;-75
2022/12/11 03:19:52;;;;;;;15.35;8.60;;;;;;;-1.92;100.00;97801.50;4282553;33;20050;-74
2022/12/11 03:22:33;;;;;;;19.30;8.52;;;;;;;-1.75;100.00;97793.25;4282172;33;20057;-75
2022/12/11 03:25:14;;;;;;;16.70;6.55;;;;;;;-1.92;100.00;97796.22;4284657;33;20038;-74
2022/12/11 03:28:04;;;;;;;17.83;7.20;;;;;;;-2.08;100.00;97759.69;4297145;33;20858;-76
2022/12/11 03:30:35;;;;;;;17.25;8.25;;;;;;;-1.83;100.00;97794.22;4280655;33;20436;-75
2022/12/11 03:33:07;;;;;;;5.75;4.37;;;;;;;-1.81;100.00;97796.69;4235889;33;20039;-74
2022/12/11 03:35:41;;;;;;;23.52;11.77;;;;;;;-1.94;100.00;97797.47;4228690;33;20053;-74
2022/12/11 03:38:14;;;;;;;32.83;11.82;;;;;;;-2.14;100.00;97765.75;4235695;33;20111;-74
2022/12/11 03:40:45;;;;;;;26.05;10.05;;;;;;;-1.67;100.00;97803.59;4239179;33;20079;-73
2022/12/11 03:43:12;;;;;;;29.08;11.57;;;;;;;-1.80;100.00;97809.66;4251924;33;20201;-75
2022/12/11 03:45:40;;;;;;;20.75;9.05;;;;;;;-1.86;100.00;97803.34;4251683;33;20068;-75
2022/12/11 03:48:09;;;;;;;18.83;8.13;;;;;;;-1.85;100.00;97791.78;4251799;33;20052;-74
2022/12/11 03:50:36;;;;;;;27.98;10.63;;;;;;;-1.79;100.00;97799.91;4220526;34;20359;-73
2022/12/11 03:53:04;;;;;;;13.75;6.80;;;;;;;-2.14;100.00;97749.91;4223394;34;20157;-74
2022/12/11 03:55:32;;;;;;;13.10;6.32;;;;;;;-1.94;100.00;97779.78;4223499;34;20031;-75
2022/12/11 03:57:58;;;;;;;20.12;9.27;;;;;;;-1.89;100.00;97781.84;4223561;34;20056;-74
2022/12/11 04:00:25;;;;;;;21.40;9.30;;;;;;;-2.39;100.00;97748.62;4221438;34;20030;-74
2022/12/11 04:05:37;;;;;;;22.27;9.93;;;;;;;-2.00;100.00;97785.88;4236449;33;20031;-74
2022/12/11 04:08:04;;;;;;;17.48;8.73;;;;;;;-2.08;100.00;97775.50;4214915;34;20054;-74
2022/12/11 04:10:30;;;;;;;10.38;5.35;;;;;;;-2.01;100.00;97771.03;4194794;34;20047;-73
2022/12/11 04:12:56;;;;;;;26.23;11.12;;;;;;;-2.09;100.00;97776.50;4165575;34;20052;-74
2022/12/11 04:15:23;;;;;;;25.88;9.80;;;;;;;-2.32;100.00;97743.38;4168554;34;20084;-75
2022/12/11 04:26:09;;;;;;;14.98;7.68;;;;;;;-2.45;100.00;97780.25;4169523;34;20058;-73
2022/12/11 04:28:36;;;;;;;5.68;4.70;;;;;;;-2.19;100.00;97792.72;4162987;34;20032;-74
2022/12/11 04:31:03;;;;;;;13.98;7.60;;;;;;;-2.41;100.00;97794.66;4170862;34;20069;-75
2022/12/11 04:33:30;;;;;;;24.05;11.38;;;;;;;-2.34;100.00;97790.22;4170453;34;20085;-75
2022/12/11 04:35:58;;;;;;;24.70;10.70;;;;;;;-2.28;100.00;97771.00;4170553;34;20459;-75
2022/12/11 04:38:24;;;;;;;21.58;9.05;;;;;;;-2.11;100.00;97781.97;4154907;34;20176;-74
2022/12/11 04:41:20;;;;;;;6.50;4.87;;;;;;;-2.50;100.00;97740.50;4165288;34;20391;-77
2022/12/11 04:43:46;;;;;;;4.03;3.62;;;;;;;-2.24;100.00;97782.75;4161323;34;20053;-75
2022/12/11 04:46:19;;;;;;;15.35;6.03;;;;;;;-2.79;100.00;97747.69;4200537;34;20032;-74
2022/12/11 04:48:45;;;;;;;19.75;9.18;;;;;;;-2.27;100.00;97767.31;4212216;34;20035;-75
2022/12/11 04:51:12;;;;;;;13.90;6.25;;;;;;;-2.39;100.00;97761.03;4197886;34;20081;-75
2022/12/11 04:53:38;;;;;;;13.80;5.37;;;;;;;-2.43;100.00;97746.59;4198049;34;20032;-74
2022/12/11 04:56:11;;;;;;;35.70;13.73;;;;;;;-2.28;100.00;97755.16;4194102;34;20040;-75
2022/12/11 04:58:40;;;;;;;22.05;11.77;;;;;;;-2.03;100.00;97765.16;4198033;34;20062;-75
2022/12/11 05:01:20;;;;;;;13.23;7.18;;;;;;;-2.11;100.00;97733.69;4196487;34;20039;-75
2022/12/11 05:03:47;;;;;;;13.50;7.25;;;;;;;-2.12;100.00;97761.06;4183606;34;20073;-74
2022/12/11 05:06:15;;;;;;;31.10;11.02;;;;;;;-2.47;100.00;97755.91;4195040;34;20065;-75
2022/12/11 05:08:42;;;;;;;32.08;4.70;;;;;;;-2.57;100.00;97720.19;4184272;34;20062;-74
2022/12/11 05:11:11;;;;;;;23.17;11.90;;;;;;;-2.52;100.00;97753.88;4183844;34;20077;-74
2022/12/11 05:13:38;;;;;;;24.95;10.70;;;;;;;-2.25;100.00;97744.22;4170110;34;20076;-73
2022/12/11 05:16:07;;;;;;;21.42;10.00;;;;;;;-2.29;100.00;97743.00;4169138;34;20032;-74
2022/12/11 05:18:34;;;;;;;15.55;8.27;;;;;;;-2.43;100.00;97738.69;4169394;34;20175;-75
2022/12/11 05:21:03;;;;;;;23.52;12.00;;;;;;;-2.37;100.00;97740.53;4223600;33;20034;-74
2022/12/11 05:23:30;;;;;;;25.80;11.85;;;;;;;-2.60;100.00;97704.78;4239484;33;20042;-74
2022/12/11 05:25:59;;;;;;;32.92;15.45;;;;;;;-2.39;100.00;97732.03;4240341;33;20076;-74
2022/12/11 05:28:28;;;;;;;33.53;14.68;;;;;;;-2.28;100.00;97739.34;4253627;33;20076;-74
2022/12/11 05:30:56;;;;;;;24.75;11.85;;;;;;;-2.18;100.00;97735.53;4240433;33;20042;-74
2022/12/11 05:33:23;;;;;;;31.58;13.27;;;;;;;-2.45;100.00;97706.44;4211370;34;20050;-73
2022/12/11 05:35:50;;;;;;;37.67;15.60;;;;;;;-2.37;100.00;97730.00;4221137;33;20034;-73
2022/12/11 05:38:17;;;;;;;16.75;8.02;;;;;;;-2.45;100.00;97699.34;4217430;33;20080;-75
2022/12/11 05:40:44;;;;;;;25.75;13.00;;;;;;;-2.63;100.00;97705.19;4227147;33;20086;-75
2022/12/11 05:43:10;;;;;;;23.50;10.18;;;;;;;-2.37;100.00;97724.72;4224775;33;20347;-75
2022/12/11 05:45:37;;;;;;;17.58;10.00;;;;;;;-2.69;100.00;97682.25;4237458;33;20052;-75
2022/12/11 05:48:03;;;;;;;7.97;6.78;;;;;;;-2.56;100.00;97708.63;4237188;33;20058;-74
2022/12/11 05:50:30;;;;;;;5.28;3.87;;;;;;;-2.87;100.00;97688.06;4210642;34;20088;-75
2022/12/11 05:52:56;;;;;;;8.63;4.72;;;;;;;-2.82;100.00;97719.09;4223675;34;20393;-75
2022/12/11 05:55:22;;;;;;;10.27;6.82;;;;;;;-2.78;100.00;97707.13;4210002;34;20042;-75
2022/12/11 05:57:49;;;;;;;10.45;5.87;;;;;;;-2.94;100.00;97690.63;4197304;34;20058;-76
2022/12/11 06:00:16;;;;;;;25.20;11.63;;;;;;;-2.69;100.00;97711.22;4196911;34;20054;-74
2022/12/11 06:02:42;;;;;;;26.55;12.32;;;;;;;-2.68;100.00;97699.69;4195506;34;20047;-75
2022/12/11 06:05:09;;;;;;;13.82;6.22;;;;;;;-2.51;100.00;97717.78;4208071;34;20042;-76
2022/12/11 06:07:35;;;;;;;21.08;8.75;;;;;;;-2.79;100.00;97711.59;4210871;34;20036;-75
2022/12/11 06:10:02;;;;;;;27.65;10.80;;;;;;;-2.74;100.00;97713.66;4210751;34;20390;-75
2022/12/11 06:12:29;;;;;;;19.42;9.63;;;;;;;-2.65;100.00;97727.44;4209232;34;20074;-73
2022/12/11 06:14:56;;;;;;;10.23;6.47;;;;;;;-3.05;100.00;97680.66;4210189;34;20043;-74
2022/12/11 06:17:22;;;;;;;7.55;4.55;;;;;;;-3.09;100.00;97695.25;4200449;34;20065;-74
2022/12/11 06:19:49;;;;;;;20.73;9.50;;;;;;;-2.89;100.00;97715.59;4185176;34;20405;-74
2022/12/11 06:22:15;;;;;;;5.00;4.05;;;;;;;-2.78;100.00;97718.47;4205804;34;20035;-73
2022/12/11 06:24:41;;;;;;;11.10;6.50;;;;;;;-2.84;100.00;97726.34;4209749;34;20081;-74
2022/12/11 06:27:08;;;;;;;31.23;13.02;;;;;;;-2.96;100.00;97711.09;4233182;33;20077;-74
2022/12/11 06:29:35;;;;;;;18.37;5.78;;;;;;;-2.76;100.00;97720.91;4240058;33;20347;-75
2022/12/11 06:32:02;;;;;;;15.15;6.22;;;;;;;-2.90;100.00;97716.59;4239100;33;20072;-74
2022/12/11 06:34:28;;;;;;;24.02;12.02;;;;;;;-2.86;100.00;97702.03;4240154;33;20119;-73
2022/12/11 06:36:54;;;;;;;27.92;10.98;;;;;;;-2.70;100.00;97714.06;4235210;33;20186;-74
2022/12/11 06:39:21;;;;;;;17.60;8.88;;;;;;;-2.62;100.00;97706.78;4224286;34;20024;-74
2022/12/11 06:41:48;;;;;;;18.87;8.18;;;;;;;-2.72;100.00;97716.09;4230449;33;20081;-75
2022/12/11 06:44:14;;;;;;;24.08;10.77;;;;;;;-2.81;100.00;97718.06;4231936;33;20050;-74
2022/12/11 06:46:46;;;;;;;;;;;;;;;-2.76;100.00;97715.66;4238876;33;20050;-75
2022/12/11 06:49:13;;;;;;;36.03;14.43;;;;;;;-2.61;100.00;97716.31;4238517;33;19942;-75
2022/12/11 06:51:39;;;;;;;15.98;7.35;;;;;;;-2.88;100.00;97691.69;4269622;33;20064;-75
2022/12/11 06:54:05;;;;;;;8.40;5.37;;;;;;;-2.86;100.00;97725.75;4281158;33;20059;-75
2022/12/11 06:56:34;;;;;;;27.25;13.10;;;;;;;-3.16;100.00;97694.38;4278472;33;20067;-74
2022/12/11 06:59:00;;;;;;;24.00;11.45;;;;;;;-2.67;100.00;97735.56;4266607;33;20530;-75
2022/12/11 07:01:27;;;;;;;38.78;14.23;;;;;;;-2.90;100.00;97704.25;4265569;33;20054;-75
2022/12/11 07:03:58;;;;;;;21.12;10.32;;;;;;;-2.84;100.00;97702.62;4260852;33;20052;-74
2022/12/11 07:06:27;;;;;;;11.98;6.82;;;;;;;-2.70;100.00;97735.94;4260507;33;20446;-75
2022/12/11 07:08:53;;;;;;;28.35;13.55;;;;;;;-2.86;100.00;97737.09;4246631;33;20157;-76
2022/12/11 07:11:21;;;;;;;35.53;17.62;;;;;;;-3.06;100.00;97700.13;4256935;33;20050;-76
2022/12/11 07:13:47;;;;;;;53.00;13.65;;;;;;;-2.58;100.00;97738.84;4278696;33;20062;-75
2022/12/11 07:16:15;;;;;;;17.25;8.73;;;;;;;-2.79;100.00;97721.34;4280541;33;20313;-75
2022/12/11 07:18:45;;;;;;;12.37;7.90;;;;;;;-2.80;100.00;97738.13;4278814;33;20067;-76
2022/12/11 07:21:13;;;;;;;10.57;6.72;;;;;;;-2.74;100.00;97743.44;4251648;33;20058;-74
2022/12/11 07:23:40;;;;;;;9.43;5.45;;;;;;;-3.11;100.00;97702.53;4251574;33;20093;-80
2022/12/11 07:26:10;;;;;;;7.30;5.32;;;;;;;-2.87;100.00;97734.66;4257855;33;20041;-76
2022/12/11 07:28:36;;;;;;;18.00;8.57;;;;;;;-3.25;100.00;97692.94;4264540;33;20063;-75
2022/12/11 07:31:08;;;;;;;4.72;4.07;;;;;;;-3.12;100.00;97691.16;4267630;33;20085;-76
2022/12/11 07:33:34;;;;;;;11.40;6.32;;;;;;;-3.11;100.00;97686.75;4276994;33;20049;-75
2022/12/11 07:36:03;;;;;;;30.05;12.25;;;;;;;-3.10;100.00;97683.06;4271516;33;20071;-76
2022/12/11 07:38:29;;;;;;;11.80;4.60;;;;;;;-2.98;100.00;97692.06;4278123;33;20386;-75
2022/12/11 07:41:00;;;;;;;17.55;9.52;;;;;;;-3.17;100.00;97676.97;4280624;33;20197;-77
2022/12/11 07:43:26;;;;;;;16.48;7.85;;;;;;;-2.75;100.00;97704.91;4281314;33;20059;-76
2022/12/11 07:45:53;;;;;;;25.17;11.25;;;;;;;-2.86;100.00;97715.22;4269698;33;20037;-76
2022/12/11 07:48:19;;;;;;;28.15;12.65;;;;;;;-2.74;100.00;97713.66;4265968;33;20161;-77
2022/12/11 07:50:46;;;;;;;6.20;4.20;;;;;;;-2.98;100.00;97665.72;4262313;33;20410;-76
2022/12/11 07:53:12;;;;;;;18.27;6.65;;;;;;;-2.99;100.00;97695.69;4265625;33;20446;-77
2022/12/11 07:55:39;;;;;;;21.45;11.43;;;;;;;-2.79;100.00;97705.53;4265123;33;20045;-77
2022/12/11 07:58:05;;;;;;;19.90;8.15;;;;;;;-2.79;100.00;97676.53;4279844;33;20041;-77
2022/12/11 08:00:32;;;;;;;27.83;12.05;;;;;;;-2.98;100.00;97665.72;4269883;33;20490;-76
2022/12/11 08:02:58;;;;;;;13.32;7.62;;;;;;;-2.88;100.00;97664.53;4273283;33;20114;-76
2022/12/11 08:05:25;;;;;;;20.00;9.43;;;;;;;-3.09;100.00;97671.56;4268882;33;20041;-77
2022/12/11 08:07:58;;;;;;;27.95;11.68;;;;;;;-3.07;100.00;97672.16;4252462;33;20498;-77
2022/12/11 08:10:25;;;;;;;23.58;13.00;;;;;;;-2.80;100.00;97709.16;4239657;33;20038;-77
2022/12/11 08:12:52;;;;;;;13.90;6.95;;;;;;;-2.73;100.00;97688.91;4238291;33;20034;-77
2022/12/11 08:15:18;;;;;;;10.15;6.25;;;;;;;-2.95;100.00;97691.66;4211911;34;20378;-77
2022/12/11 08:17:45;;;;;;;34.42;12.73;;;;;;;-3.03;100.00;97683.94;4212332;34;20035;-76
2022/12/11 08:20:11;;;;;;;18.12;9.77;;;;;;;-2.92;100.00;97699.19;4212307;34;20061;-76
2022/12/11 08:22:37;;;;;;;29.85;12.93;;;;;;;-2.92;100.00;97696.56;4212461;33;20031;-76
2022/12/11 08:25:05;;;;;;;5.37;4.15;;;;;;;-2.92;100.00;97659.66;4209761;34;20043;-75
2022/12/11 08:27:31;;;;;;;29.85;10.77;;;;;;;-2.93;100.00;97683.56;4212132;34;20050;-77
2022/12/11 08:29:57;;;;;;;16.75;6.90;;;;;;;-3.00;100.00;97667.75;4211994;34;20047;-76
2022/12/11 08:32:24;;;;;;;19.58;9.70;;;;;;;-3.02;100.00;97685.53;4212547;34;20109;-75
2022/12/11 08:34:51;;;;;;;21.12;8.32;;;;;;;-2.83;100.00;97702.44;4212298;34;20039;-75
2022/12/11 08:37:17;;;;;;;11.82;6.72;;;;;;;-2.81;100.00;97696.97;4221914;34;20074;-75
2022/12/11 08:39:45;;;;;;;17.92;9.13;;;;;;;-3.01;100.00;97687.19;4236530;33;20409;-75
2022/12/11 08:42:12;;;;;;;15.38;7.78;;;;;;;-3.14;100.00;97656.34;4239849;33;20072;-76
2022/12/11 08:44:38;;;;;;;17.62;7.72;;;;;;;-2.79;100.00;97695.00;4238289;33;20074;-73
2022/12/11 08:47:05;;;;;;;16.87;8.43;;;;;;;-2.88;100.00;97696.16;4244367;33;20038;-74
2022/12/11 08:49:31;;;;;;;18.25;8.88;;;;;;;-3.17;100.00;97655.91;4250351;33;20056;-77
2022/12/11 08:51:57;;;;;;;13.20;5.15;;;;;;;-2.75;100.00;97701.47;4249204;33;20721;-74
2022/12/11 08:54:25;;;;;;;16.83;7.18;;;;;;;-2.80;100.00;97699.44;4239513;33;20060;-74
2022/12/11 08:56:51;;;;;;;26.98;9.85;;;;;;;-2.70;100.00;97698.25;4239914;33;20046;-73
2022/12/11 08:59:18;;;;;;;13.75;7.43;;;;;;;-3.05;100.00;97638.53;4238840;33;20393;-74
2022/12/11 09:01:44;;;;;;;28.20;13.15;;;;;;;-2.69;100.00;97681.44;4217399;34;20042;-76
2022/12/11 09:04:11;;;;;;;23.10;11.43;;;;;;;-2.57;100.00;97690.38;4211745;34;20456;-76
2022/12/11 09:06:37;;;;;;;19.92;9.52;;;;;;;-2.51;100.00;97683.50;4201045;34;20163;-76
2022/12/11 09:09:04;;;;;;;23.23;11.32;;;;;;;-2.38;100.00;97680.91;4197859;34;20426;-76
2022/12/11 09:11:33;;;;;;;28.85;13.73;;;;;;;-2.51;100.00;97680.88;4198753;34;20421;-74
2022/12/11 09:14:01;;;;;;;39.50;14.10;;;;;;;-2.30;100.00;97682.53;4173128;34;20992;-73
2022/12/11 09:16:28;;;;;;;49.30;16.60;;;;;;;-2.37;100.00;97667.53;4166066;34;20394;-75
2022/12/11 09:18:57;;;;;;;26.42;12.60;;;;;;;-2.11;100.00;97683.59;4177891;34;20227;-75
2022/12/11 09:21:28;;;;;;;16.55;8.05;;;;;;;-2.31;100.00;97684.37;4180547;34;20057;-74
2022/12/11 09:23:57;;;;;;;34.80;13.82;;;;;;;-2.33;100.00;97677.66;4183270;34;21091;-75
2022/12/11 09:26:24;;;;;;;28.85;12.75;;;;;;;-2.60;100.00;97667.88;4186007;34;20043;-74
2022/12/11 09:28:52;;;;;;;14.20;5.40;;;;;;;-2.61;100.00;97665.44;4190443;34;20089;-75
2022/12/11 09:31:19;;;;;;;24.95;12.13;;;;;;;-2.77;100.00;97666.63;4183833;34;20403;-75
2022/12/11 09:33:46;;;;;;;6.22;3.62;;;;;;;-2.68;100.00;97681.25;4190011;34;20048;-74
2022/12/11 09:36:12;;;;;;;21.00;9.45;;;;;;;-2.68;100.00;97675.13;4202709;34;20141;-74
2022/12/11 09:38:39;;;;;;;21.35;11.07;;;;;;;-2.61;100.00;97676.78;4208524;34;20065;-76
2022/12/11 09:41:20;;;;;;;10.57;5.65;;;;;;;-2.69;100.00;97669.06;4237152;33;20060;-76
2022/12/11 09:44:03;;;;;;;29.25;14.00;;;;;;;-2.52;100.00;97673.97;4226434;33;20042;-76
2022/12/11 09:46:32;;;;;;;31.12;13.62;;;;;;;-2.75;100.00;97627.69;4210208;34;20166;-76
2022/12/11 09:49:01;;;;;;;24.73;11.45;;;;;;;-2.42;100.00;97663.88;4208201;34;20198;-76
2022/12/11 09:51:48;;;;;;;18.30;10.45;;;;;;;-2.56;100.00;97660.37;4220764;33;20128;-76
2022/12/11 09:54:14;;;;;;;20.77;9.55;;;;;;;-2.64;100.00;97632.38;4235696;33;20192;-76
2022/12/11 09:56:55;;;;;;;27.52;12.88;;;;;;;-2.96;100.00;97589.94;4234656;33;20459;-75
2022/12/11 09:59:22;;;;;;;26.25;11.82;;;;;;;-2.51;100.00;97604.44;4237603;33;20046;-76
2022/12/11 10:01:53;;;;;;;18.83;8.82;;;;;;;-2.58;100.00;97607.87;4238145;33;20408;-76
2022/12/11 10:04:32;;;;;;;23.35;13.13;;;;;;;-2.22;100.00;97648.91;4238881;33;20068;-76
2022/12/11 10:07:10;;;;;;;12.27;5.32;;;;;;;-2.15;100.00;97638.34;4238815;33;20481;-76
2022/12/11 10:09:53;;;;;;;26.27;8.20;;;;;;;-2.31;100.00;97630.81;4238505;33;20335;-76
2022/12/11 10:12:22;;;;;;;20.35;9.05;;;;;;;-2.41;100.00;97583.75;4236812;33;20056;-75
2022/12/11 10:15:12;;;;;;;10.23;6.68;;;;;;;-2.46;100.00;97623.91;4251976;33;20089;-76
2022/12/11 10:17:40;;;;;;;22.45;10.23;;;;;;;-2.48;100.00;97617.22;4265502;33;20116;-76
2022/12/11 10:20:30;;;;;;;16.55;7.40;;;;;;;-2.51;100.00;97621.06;4264940;33;20060;-77
2022/12/11 10:22:57;;;;;;;7.18;2.75;;;;;;;-2.40;100.00;97609.13;4266608;33;20049;-77
2022/12/11 10:25:39;;;;;;;4.93;4.25;;;;;;;-2.87;100.00;97595.88;4265795;33;20037;-74
2022/12/11 10:28:13;;;;;;;12.13;4.90;;;;;;;-2.66;100.00;97617.81;4264459;33;20288;-76
2022/12/11 10:31:03;;;;;;;14.52;6.85;;;;;;;-2.50;100.00;97619.25;4267976;33;20037;-76
2022/12/11 10:33:55;;;;;;;21.65;7.78;;;;;;;-2.53;100.00;97588.03;4268050;33;20046;-76
2022/12/11 10:36:35;;;;;;;18.48;8.82;;;;;;;-2.34;100.00;97621.50;4268121;33;20406;-75
2022/12/11 10:39:02;;;;;;;20.55;10.18;;;;;;;-2.36;100.00;97610.34;4281980;33;20050;-75
2022/12/11 10:41:37;;;;;;;21.85;10.02;;;;;;;-2.50;100.00;97603.44;4281973;33;20064;-75
2022/12/11 10:44:17;;;;;;;24.50;9.55;;;;;;;-2.45;100.00;97570.19;4283220;33;20411;-75
2022/12/11 10:46:46;;;;;;;22.50;10.60;;;;;;;-2.32;100.00;97606.28;4280557;33;20045;-76
2022/12/11 10:49:28;;;;;;;24.37;10.98;;;;;;;-2.54;100.00;97589.03;4281906;33;20074;-76
2022/12/11 10:51:56;;;;;;;24.45;9.82;;;;;;;-2.31;100.00;97586.00;4277346;33;20141;-76
2022/12/11 10:54:23;;;;;;;30.30;11.70;;;;;;;-2.31;100.00;97586.81;4281565;33;20042;-75
2022/12/11 10:56:50;;;;;;;43.70;16.02;;;;;;;-2.43;100.00;97583.16;4282429;33;20067;-76
2022/12/11 10:59:42;;;;;;;27.13;12.55;;;;;;;-2.38;100.00;97575.44;4282671;33;20355;-76
2022/12/11 11:02:23;;;;;;;18.70;8.70;;;;;;;-2.35;100.00;97575.03;4267192;33;20049;-75
2022/12/11 11:04:50;;;;;;;19.15;8.52;;;;;;;-2.43;100.00;97543.62;4282783;33;20067;-76
2022/12/11 11:07:17;;;;;;;26.55;12.30;;;;;;;-2.62;100.00;97564.47;4282524;33;20056;-76
2022/12/11 11:09:43;;;;;;;17.35;7.32;;;;;;;-2.52;100.00;97558.84;4280914;33;20037;-76
2022/12/11 11:12:25;;;;;;;25.73;10.68;;;;;;;-2.43;100.00;97572.59;4280629;33;20049;-75
2022/12/11 11:15:01;;;;;;;9.35;6.65;;;;;;;-2.35;100.00;97566.34;4282417;33;20033;-76
2022/12/11 11:17:31;;;;;;;23.45;11.93;;;;;;;-2.81;100.00;97517.84;4281905;33;20130;-75
2022/12/11 11:20:04;;;;;;;9.68;4.55;;;;;;;-2.64;100.00;97521.72;4281610;33;20063;-75
2022/12/11 11:22:31;;;;;;;10.73;5.45;;;;;;;-2.54;100.00;97560.03;4282279;33;20049;-76
2022/12/11 11:24:58;;;;;;;14.20;7.60;;;;;;;-2.61;100.00;97538.94;4282402;33;20104;-76
2022/12/11 11:27:35;;;;;;;8.25;3.70;;;;;;;-2.64;100.00;97547.25;4282092;33;20041;-75
2022/12/11 11:30:07;;;;;;;11.88;7.30;;;;;;;-2.70;100.00;97514.59;4282708;33;20394;-76
2022/12/11 11:32:38;;;;;;;5.57;3.57;;;;;;;-2.43;100.00;97533.88;4281954;33;20379;-75
2022/12/11 11:35:16;;;;;;;15.60;6.40;;;;;;;-2.82;100.00;97510.97;4282195;33;20037;-75
2022/12/11 11:37:46;;;;;;;9.73;5.37;;;;;;;-2.73;100.00;97507.09;4240417;33;20034;-75
2022/12/11 11:40:20;;;;;;;12.40;6.82;;;;;;;-2.61;100.00;97545.03;4237879;33;20034;-76
2022/12/11 11:43:06;;;;;;;19.08;9.63;;;;;;;-2.97;100.00;97514.59;4237313;33;20043;-76
2022/12/11 11:46:13;;;;;;;13.75;6.80;;;;;;;-2.80;100.00;97477.31;4237520;33;20431;-75
2022/12/11 11:48:52;;;;;;;15.48;7.45;;;;;;;-2.43;100.00;97535.72;4234876;33;20046;-75
2022/12/11 11:51:30;;;;;;;32.33;12.00;;;;;;;-2.34;100.00;97534.50;4237419;33;20074;-76
2022/12/11 11:54:17;;;;;;;28.65;12.70;;;;;;;-2.24;100.00;97524.34;4236591;33;20065;-75
2022/12/11 11:56:44;;;;;;;28.02;12.00;;;;;;;-2.14;100.00;97526.56;4223814;34;20057;-76
2022/12/11 11:59:38;;;;;;;19.10;9.65;;;;;;;-2.56;100.00;97515.44;4223806;34;20178;-76
2022/12/11 12:02:13;;;;;;;27.73;10.43;;;;;;;-2.31;100.00;97523.53;4418809;28;20067;-76
2022/12/11 12:04:41;;;;;;;29.85;13.90;;;;;;;-2.25;100.00;97516.63;4251071;33;20501;-75
2022/12/11 12:07:28;;;;;;;8.07;4.62;;;;;;;-2.44;100.00;97507.72;4251798;33;20044;-76
2022/12/11 12:10:29;;;;;;;26.17;12.73;;;;;;;-2.68;100.00;97517.88;4262889;33;20026;-74
2022/12/11 12:13:21;;;;;;;18.10;9.55;;;;;;;-2.54;100.00;97470.44;4265592;33;20088;-75
2022/12/11 12:16:00;;;;;;;13.30;7.10;;;;;;;-2.34;100.00;97513.41;4265740;33;20436;-75
2022/12/11 12:18:40;;;;;;;11.40;7.20;;;;;;;-2.53;100.00;97515.03;4264446;33;20030;-76
2022/12/11 12:21:36;;;;;;;36.10;12.32;;;;;;;-2.44;100.00;97502.44;4222969;34;20038;-75
2022/12/11 12:24:25;;;;;;;24.73;10.68;;;;;;;-2.35;100.00;97506.50;4223220;34;20030;-75
2022/12/11 12:27:01;;;;;;;24.50;9.57;;;;;;;-2.50;100.00;97509.34;4198497;34;20040;-76
2022/12/11 12:30:02;;;;;;;14.00;7.60;;;;;;;-2.83;100.00;97477.72;4194638;34;20039;-74
2022/12/11 12:33:04;;;;;;;16.60;7.53;;;;;;;-2.72;100.00;97506.09;4198101;34;20051;-74
2022/12/11 12:35:49;;;;;;;22.42;10.25;;;;;;;-2.70;100.00;97508.53;4192104;34;20035;-74
2022/12/11 12:38:59;;;;;;;6.03;4.03;;;;;;;-2.75;100.00;97490.69;4193561;34;20439;-73
2022/12/11 12:41:53;;;;;;;12.05;5.18;;;;;;;-2.71;100.00;97502.47;4160009;34;20098;-73
2022/12/11 12:44:23;;;;;;;22.55;10.43;;;;;;;-2.53;100.00;97498.41;4155512;34;20040;-73
2022/12/11 12:46:58;;;;;;;10.98;6.32;;;;;;;-2.89;100.00;97425.84;4161062;34;20114;-73
2022/12/11 12:49:39;;;;;;;19.95;9.90;;;;;;;-2.63;100.00;97499.63;4155695;34;20048;-73
2022/12/11 12:52:12;;;;;;;15.93;8.10;;;;;;;-2.78;100.00;97496.38;4165825;34;20061;-74
2022/12/11 12:57:36;;;;;;;23.27;9.13;;;;;;;-2.60;100.00;97490.47;4186372;34;20785;-74
2022/12/11 13:00:05;;;;;;;20.15;8.88;;;;;;;-2.72;100.00;97452.59;4208181;34;20430;-74
2022/12/11 13:02:31;;;;;;;14.00;7.43;;;;;;;-2.63;100.00;97499.63;4211246;34;20094;-74
2022/12/11 13:05:06;;;;;;;25.98;10.43;;;;;;;-2.65;100.00;97500.84;4178252;34;20431;-73
2022/12/11 13:07:33;;;;;;;11.20;7.22;;;;;;;-2.56;100.00;97481.97;4181676;34;20282;-73
2022/12/11 13:10:05;;;;;;;28.65;10.45;;;;;;;-2.71;100.00;97491.94;4180834;34;20024;-73
2022/12/11 13:12:33;;;;;;;;;;;;;;;-2.56;100.00;97489.88;4203639;34;20401;-73
2022/12/11 13:15:00;;;;;;;16.30;5.18;;;;;;;-2.32;100.00;97490.28;4220636;34;19941;-74
2022/12/11 13:17:45;;;;;;;29.48;11.90;;;;;;;-2.65;100.00;97501.66;4222923;34;20047;-74
2022/12/11 13:20:24;;;;;;;21.92;12.02;;;;;;;-2.23;100.00;97504.06;4224036;34;20057;-73
2022/12/11 13:23:05;;;;;;;29.77;10.48;;;;;;;-2.54;100.00;97462.53;4222789;34;20098;-74
2022/12/11 13:25:47;;;;;;;11.90;6.75;;;;;;;-2.45;100.00;97490.28;4223972;34;20377;-74
2022/12/11 13:28:23;;;;;;;27.45;9.65;;;;;;;-2.57;100.00;97501.47;4207611;34;20027;-73
2022/12/11 13:31:01;;;;;;;19.77;7.72;;;;;;;-2.65;100.00;97511.38;4208651;34;20111;-74
2022/12/11 13:33:29;;;;;;;24.37;10.20;;;;;;;-2.60;100.00;97504.50;4208783;34;20090;-74
2022/12/11 13:36:08;;;;;;;15.52;8.13;;;;;;;-2.59;100.00;97500.81;4218246;33;20095;-73
2022/12/11 13:38:36;;;;;;;51.45;19.42;;;;;;;-2.45;100.00;97506.13;4239723;33;20425;-74
2022/12/11 13:41:09;;;;;;;39.45;13.55;;;;;;;-2.40;100.00;97508.94;4194693;34;20054;-74
2022/12/11 13:43:37;;;;;;;27.80;12.25;;;;;;;-2.45;100.00;97511.38;4186573;34;20083;-73
2022/12/11 13:46:09;;;;;;;31.80;13.75;;;;;;;-3.18;100.00;97412.06;4195618;34;20087;-73
2022/12/11 13:48:38;;;;;;;40.70;15.15;;;;;;;-2.47;100.00;97502.84;4197790;34;20133;-74